sensor_id;sensor_type;location;lat;lon;timestamp;pressure;altitude;pressure_sealevel;temperature;humidity
41102;BME280;26845;50.190;19.178;2023-11-22T00:01:34;98857.31;;;1.03;100.00
41102;BME280;26845;50.190;19.178;2023-11-22T00:04:00;98862.38;;;1.01;100.00
41102;BME280;26845;50.190;19.178;2023-11-22T00:06:26;98864.17;;;0.94;100.00
41102;BME280;26845;50.190;19.178;2023-11-22T00:08:52;98864.00;;;0.88;100.00
41102;BME280;26845;50.190;19.178;2023-11-22T00:11:18;98870.00;;;0.87;100.00
41102;BME280;26845;50.190;19.178;2023-11-22T00:13:44;98875.45;;;0.85;100.00
41102;BME280;26845;50.190;19.178;2023-11-22T00:16:11;98880.52;;;0.88;100.00
41102;BME280;26845;50.190;19.178;2023-11-22T00:18:37;98885.53;;;0.87;100.00
41102;BME280;26845;50.190;19.178;2023-11-22T00:21:03;98891.41;;;0.84;100.00
41102;BME280;26845;50.190;19.178;2023-11-22T00:23:29;98896.82;;;0.84;100.00
41102;BME280;26845;50.190;19.178;2023-11-22T00:25:55;98906.38;;;0.85;100.00
41102;BME280;26845;50.190;19.178;2023-11-22T00:28:22;98906.24;;;0.84;100.00
41102;BME280;26845;50.190;19.178;2023-11-22T00:30:48;98909.27;;;0.85;100.00
41102;BME280;26845;50.190;19.178;2023-11-22T00:33:14;98916.42;;;0.84;100.00
41102;BME280;26845;50.190;19.178;2023-11-22T00:35:40;98911.41;;;0.86;100.00
41102;BME280;26845;50.190;19.178;2023-11-22T00:38:06;98911.48;;;0.87;100.00
41102;BME280;26845;50.190;19.178;2023-11-22T00:40:32;98910.86;;;0.85;100.00
41102;BME280;26845;50.190;19.178;2023-11-22T00:42:58;98917.61;;;0.86;100.00
41102;BME280;26845;50.190;19.178;2023-11-22T00:45:24;98915.73;;;0.83;100.00
41102;BME280;26845;50.190;19.178;2023-11-22T00:47:51;98916.23;;;0.76;100.00
41102;BME280;26845;50.190;19.178;2023-11-22T00:50:17;98917.91;;;0.71;100.00
41102;BME280;26845;50.190;19.178;2023-11-22T00:52:46;98920.22;;;0.64;100.00
41102;BME280;26845;50.190;19.178;2023-11-22T00:55:12;98925.91;;;0.64;100.00
41102;BME280;26845;50.190;19.178;2023-11-22T00:57:38;98925.77;;;0.62;100.00
41102;BME280;26845;50.190;19.178;2023-11-22T01:00:05;98930.94;;;0.57;100.00
41102;BME280;26845;50.190;19.178;2023-11-22T01:02:30;98926.09;;;0.55;100.00
41102;BME280;26845;50.190;19.178;2023-11-22T01:04:57;98928.45;;;0.52;100.00
41102;BME280;26845;50.190;19.178;2023-11-22T01:07:23;98929.28;;;0.46;100.00
41102;BME280;26845;50.190;19.178;2023-11-22T01:09:49;98933.14;;;0.41;100.00
41102;BME280;26845;50.190;19.178;2023-11-22T01:12:15;98942.55;;;0.39;100.00
41102;BME280;26845;50.190;19.178;2023-11-22T01:14:41;98932.12;;;0.39;100.00
41102;BME280;26845;50.190;19.178;2023-11-22T01:17:07;98936.74;;;0.35;100.00
41102;BME280;26845;50.190;19.178;2023-11-22T01:19:33;98934.08;;;0.33;100.00
41102;BME280;26845;50.190;19.178;2023-11-22T01:22:00;98939.73;;;0.27;100.00
41102;BME280;26845;50.190;19.178;2023-11-22T01:24:26;98941.97;;;0.25;100.00
41102;BME280;26845;50.190;19.178;2023-11-22T01:26:53;98949.49;;;0.23;100.00
41102;BME280;26845;50.190;19.178;2023-11-22T01:29:19;98948.42;;;0.21;100.00
41102;BME280;26845;50.190;19.178;2023-11-22T01:31:45;98956.14;;;0.22;100.00
41102;BME280;26845;50.190;19.178;2023-11-22T01:34:11;98959.04;;;0.25;100.00
41102;BME280;26845;50.190;19.178;2023-11-22T01:36:41;98958.71;;;0.28;100.00
41102;BME280;26845;50.190;19.178;2023-11-22T01:39:06;98957.44;;;0.30;100.00
41102;BME280;26845;50.190;19.178;2023-11-22T01:41:33;98957.68;;;0.37;100.00
41102;BME280;26845;50.190;19.178;2023-11-22T01:43:59;98957.20;;;0.42;100.00
41102;BME280;26845;50.190;19.178;2023-11-22T01:46:25;98967.31;;;0.42;100.00
41102;BME280;26845;50.190;19.178;2023-11-22T01:48:52;98969.86;;;0.43;100.00
41102;BME280;26845;50.190;19.178;2023-11-22T01:51:22;98972.02;;;0.41;100.00
41102;BME280;26845;50.190;19.178;2023-11-22T01:53:49;98973.40;;;0.41;100.00
41102;BME280;26845;50.190;19.178;2023-11-22T01:56:15;98967.89;;;0.40;100.00
41102;BME280;26845;50.190;19.178;2023-11-22T01:58:42;98967.71;;;0.36;100.00
41102;BME280;26845;50.190;19.178;2023-11-22T02:01:08;98968.09;;;0.36;100.00
41102;BME280;26845;50.190;19.178;2023-11-22T02:03:34;98972.73;;;0.32;100.00
41102;BME280;26845;50.190;19.178;2023-11-22T02:06:01;98974.70;;;0.34;100.00
41102;BME280;26845;50.190;19.178;2023-11-22T02:08:27;98973.19;;;0.42;100.00
41102;BME280;26845;50.190;19.178;2023-11-22T02:10:57;98975.15;;;0.49;100.00
41102;BME280;26845;50.190;19.178;2023-11-22T02:13:22;98972.66;;;0.50;100.00
41102;BME280;26845;50.190;19.178;2023-11-22T02:15:48;98971.72;;;0.53;100.00
41102;BME280;26845;50.190;19.178;2023-11-22T02:18:15;98968.83;;;0.50;100.00
41102;BME280;26845;50.190;19.178;2023-11-22T02:20:41;98973.73;;;0.51;100.00
41102;BME280;26845;50.190;19.178;2023-11-22T02:23:08;98975.33;;;0.55;100.00
41102;BME280;26845;50.190;19.178;2023-11-22T02:25:35;98986.41;;;0.51;100.00
41102;BME280;26845;50.190;19.178;2023-11-22T02:28:01;98982.30;;;0.48;100.00
41102;BME280;26845;50.190;19.178;2023-11-22T02:30:27;98988.38;;;0.44;100.00
41102;BME280;26845;50.190;19.178;2023-11-22T02:32:53;98987.05;;;0.41;100.00
41102;BME280;26845;50.190;19.178;2023-11-22T02:35:20;98990.86;;;0.40;100.00
41102;BME280;26845;50.190;19.178;2023-11-22T02:37:46;98994.23;;;0.44;100.00
41102;BME280;26845;50.190;19.178;2023-11-22T02:40:17;99001.68;;;0.46;100.00
41102;BME280;26845;50.190;19.178;2023-11-22T02:42:44;98992.50;;;0.39;100.00
41102;BME280;26845;50.190;19.178;2023-11-22T02:45:10;98996.04;;;0.38;100.00
41102;BME280;26845;50.190;19.178;2023-11-22T02:47:36;99002.55;;;0.39;100.00
41102;BME280;26845;50.190;19.178;2023-11-22T02:50:02;99006.73;;;0.38;100.00
41102;BME280;26845;50.190;19.178;2023-11-22T02:52:30;99014.33;;;0.34;100.00
41102;BME280;26845;50.190;19.178;2023-11-22T02:54:56;99015.16;;;0.26;100.00
41102;BME280;26845;50.190;19.178;2023-11-22T02:57:22;99021.42;;;0.25;100.00
41102;BME280;26845;50.190;19.178;2023-11-22T02:59:48;99027.72;;;0.25;100.00
41102;BME280;26845;50.190;19.178;2023-11-22T03:02:15;99036.85;;;0.22;100.00
41102;BME280;26845;50.190;19.178;2023-11-22T03:04:42;99040.22;;;0.21;100.00
41102;BME280;26845;50.190;19.178;2023-11-22T03:07:08;99042.10;;;0.20;100.00
41102;BME280;26845;50.190;19.178;2023-11-22T03:09:34;99047.17;;;0.16;100.00
41102;BME280;26845;50.190;19.178;2023-11-22T03:12:00;99054.16;;;0.13;100.00
41102;BME280;26845;50.190;19.178;2023-11-22T03:14:27;99059.65;;;0.13;100.00
41102;BME280;26845;50.190;19.178;2023-11-22T03:16:54;99060.50;;;0.10;100.00
41102;BME280;26845;50.190;19.178;2023-11-22T03:19:20;99069.55;;;0.09;100.00
41102;BME280;26845;50.190;19.178;2023-11-22T03:21:46;99070.67;;;0.07;100.00
41102;BME280;26845;50.190;19.178;2023-11-22T03:24:12;99076.33;;;0.06;100.00
41102;BME280;26845;50.190;19.178;2023-11-22T03:26:39;99079.91;;;0.05;100.00
41102;BME280;26845;50.190;19.178;2023-11-22T03:29:05;99076.24;;;0.02;100.00
41102;BME280;26845;50.190;19.178;2023-11-22T03:31:31;99081.36;;;0.02;100.00
41102;BME280;26845;50.190;19.178;2023-11-22T03:33:57;99082.49;;;0.03;100.00
41102;BME280;26845;50.190;19.178;2023-11-22T03:36:23;99092.77;;;0.04;100.00
41102;BME280;26845;50.190;19.178;2023-11-22T03:38:50;99092.63;;;0.04;100.00
41102;BME280;26845;50.190;19.178;2023-11-22T03:41:16;99092.35;;;0.06;100.00
41102;BME280;26845;50.190;19.178;2023-11-22T03:43:42;99094.77;;;0.04;100.00
41102;BME280;26845;50.190;19.178;2023-11-22T03:46:08;99103.77;;;0.07;100.00
41102;BME280;26845;50.190;19.178;2023-11-22T03:48:34;99108.65;;;0.08;100.00
41102;BME280;26845;50.190;19.178;2023-11-22T03:51:00;99123.92;;;0.08;100.00
41102;BME280;26845;50.190;19.178;2023-11-22T03:53:26;99126.91;;;0.12;100.00
41102;BME280;26845;50.190;19.178;2023-11-22T03:55:52;99130.63;;;0.14;100.00
41102;BME280;26845;50.190;19.178;2023-11-22T03:58:19;99132.73;;;0.13;100.00
41102;BME280;26845;50.190;19.178;2023-11-22T04:00:45;99138.77;;;0.12;100.00
41102;BME280;26845;50.190;19.178;2023-11-22T04:03:11;99144.05;;;0.11;100.00
41102;BME280;26845;50.190;19.178;2023-11-22T04:05:37;99147.75;;;0.11;100.00
41102;BME280;26845;50.190;19.178;2023-11-22T04:08:03;99153.05;;;0.10;100.00
41102;BME280;26845;50.190;19.178;2023-11-22T04:10:29;99164.34;;;0.12;100.00
41102;BME280;26845;50.190;19.178;2023-11-22T04:12:56;99168.90;;;0.15;100.00
41102;BME280;26845;50.190;19.178;2023-11-22T04:15:22;99167.59;;;0.17;100.00
41102;BME280;26845;50.190;19.178;2023-11-22T04:17:48;99169.77;;;0.20;100.00
41102;BME280;26845;50.190;19.178;2023-11-22T04:20:14;99174.25;;;0.19;100.00
41102;BME280;26845;50.190;19.178;2023-11-22T04:22:41;99181.77;;;0.13;100.00
41102;BME280;26845;50.190;19.178;2023-11-22T04:25:07;99184.08;;;0.09;100.00
41102;BME280;26845;50.190;19.178;2023-11-22T04:27:33;99191.73;;;0.09;100.00
41102;BME280;26845;50.190;19.178;2023-11-22T04:29:59;99197.45;;;0.08;100.00
41102;BME280;26845;50.190;19.178;2023-11-22T04:32:26;99200.82;;;0.08;100.00
41102;BME280;26845;50.190;19.178;2023-11-22T04:34:52;99202.76;;;0.04;100.00
41102;BME280;26845;50.190;19.178;2023-11-22T04:37:18;99203.10;;;-0.01;100.00
41102;BME280;26845;50.190;19.178;2023-11-22T04:39:44;99208.94;;;-0.03;100.00
41102;BME280;26845;50.190;19.178;2023-11-22T04:42:10;99206.42;;;-0.11;100.00
41102;BME280;26845;50.190;19.178;2023-11-22T04:44:36;99212.85;;;-0.13;100.00
41102;BME280;26845;50.190;19.178;2023-11-22T04:47:03;99220.45;;;-0.15;100.00
41102;BME280;26845;50.190;19.178;2023-11-22T04:49:29;99220.12;;;-0.20;100.00
41102;BME280;26845;50.190;19.178;2023-11-22T04:51:57;99225.27;;;-0.25;100.00
41102;BME280;26845;50.190;19.178;2023-11-22T04:54:23;99233.77;;;-0.26;100.00
41102;BME280;26845;50.190;19.178;2023-11-22T04:56:49;99239.13;;;-0.30;100.00
41102;BME280;26845;50.190;19.178;2023-11-22T04:59:15;99249.56;;;-0.32;100.00
41102;BME280;26845;50.190;19.178;2023-11-22T05:01:42;99251.95;;;-0.31;100.00
41102;BME280;26845;50.190;19.178;2023-11-22T05:04:08;99252.11;;;-0.31;100.00
41102;BME280;26845;50.190;19.178;2023-11-22T05:06:35;99263.41;;;-0.33;100.00
41102;BME280;26845;50.190;19.178;2023-11-22T05:09:01;99265.99;;;-0.34;100.00
41102;BME280;26845;50.190;19.178;2023-11-22T05:11:27;99272.05;;;-0.35;100.00
41102;BME280;26845;50.190;19.178;2023-11-22T05:13:53;99282.13;;;-0.36;100.00
41102;BME280;26845;50.190;19.178;2023-11-22T05:16:19;99287.01;;;-0.37;100.00
41102;BME280;26845;50.190;19.178;2023-11-22T05:18:46;99286.33;;;-0.36;100.00
41102;BME280;26845;50.190;19.178;2023-11-22T05:21:12;99287.20;;;-0.34;100.00
41102;BME280;26845;50.190;19.178;2023-11-22T05:23:38;99290.87;;;-0.32;100.00
41102;BME280;26845;50.190;19.178;2023-11-22T05:26:04;99287.27;;;-0.32;100.00
41102;BME280;26845;50.190;19.178;2023-11-22T05:28:30;99286.05;;;-0.37;100.00
41102;BME280;26845;50.190;19.178;2023-11-22T05:30:56;99288.95;;;-0.42;100.00
41102;BME280;26845;50.190;19.178;2023-11-22T05:33:22;99292.36;;;-0.46;100.00
41102;BME280;26845;50.190;19.178;2023-11-22T05:35:49;99297.21;;;-0.44;100.00
41102;BME280;26845;50.190;19.178;2023-11-22T05:38:15;99293.72;;;-0.23;100.00
41102;BME280;26845;50.190;19.178;2023-11-22T05:40:41;99289.52;;;-0.20;100.00
41102;BME280;26845;50.190;19.178;2023-11-22T05:43:08;99294.79;;;-0.28;100.00
41102;BME280;26845;50.190;19.178;2023-11-22T05:45:34;99292.59;;;-0.39;100.00
41102;BME280;26845;50.190;19.178;2023-11-22T05:48:00;99300.73;;;-0.39;100.00
41102;BME280;26845;50.190;19.178;2023-11-22T05:50:26;99303.70;;;-0.40;100.00
41102;BME280;26845;50.190;19.178;2023-11-22T05:52:52;99306.59;;;-0.45;100.00
41102;BME280;26845;50.190;19.178;2023-11-22T05:55:19;99310.40;;;-0.50;100.00
41102;BME280;26845;50.190;19.178;2023-11-22T05:57:45;99312.27;;;-0.56;100.00
41102;BME280;26845;50.190;19.178;2023-11-22T06:00:11;99319.96;;;-0.61;100.00
41102;BME280;26845;50.190;19.178;2023-11-22T06:02:37;99322.45;;;-0.64;100.00
41102;BME280;26845;50.190;19.178;2023-11-22T06:05:04;99322.73;;;-0.66;100.00
41102;BME280;26845;50.190;19.178;2023-11-22T06:07:30;99326.38;;;-0.66;100.00
41102;BME280;26845;50.190;19.178;2023-11-22T06:09:57;99332.49;;;-0.69;100.00
41102;BME280;26845;50.190;19.178;2023-11-22T06:12:23;99336.56;;;-0.67;100.00
41102;BME280;26845;50.190;19.178;2023-11-22T06:14:49;99347.92;;;-0.66;100.00
41102;BME280;26845;50.190;19.178;2023-11-22T06:17:15;99347.42;;;-0.62;100.00
41102;BME280;26845;50.190;19.178;2023-11-22T06:19:41;99359.20;;;-0.58;100.00
41102;BME280;26845;50.190;19.178;2023-11-22T06:22:07;99361.98;;;-0.60;100.00
41102;BME280;26845;50.190;19.178;2023-11-22T06:24:33;99368.75;;;-0.60;100.00
41102;BME280;26845;50.190;19.178;2023-11-22T06:27:02;99374.89;;;-0.60;100.00
41102;BME280;26845;50.190;19.178;2023-11-22T06:29:28;99375.44;;;-0.62;100.00
41102;BME280;26845;50.190;19.178;2023-11-22T06:31:54;99380.52;;;-0.63;100.00
41102;BME280;26845;50.190;19.178;2023-11-22T06:34:20;99387.83;;;-0.63;100.00
41102;BME280;26845;50.190;19.178;2023-11-22T06:36:46;99392.69;;;-0.65;100.00
41102;BME280;26845;50.190;19.178;2023-11-22T06:39:12;99394.22;;;-0.67;100.00
41102;BME280;26845;50.190;19.178;2023-11-22T06:41:42;99391.29;;;-0.69;100.00
41102;BME280;26845;50.190;19.178;2023-11-22T06:44:08;99390.67;;;-0.69;100.00
41102;BME280;26845;50.190;19.178;2023-11-22T06:46:34;99394.08;;;-0.65;100.00
41102;BME280;26845;50.190;19.178;2023-11-22T06:49:01;99401.54;;;-0.58;100.00
41102;BME280;26845;50.190;19.178;2023-11-22T06:51:27;99395.94;;;-0.56;100.00
41102;BME280;26845;50.190;19.178;2023-11-22T06:53:53;99403.91;;;-0.56;100.00
41102;BME280;26845;50.190;19.178;2023-11-22T06:56:19;99402.94;;;-0.58;100.00
41102;BME280;26845;50.190;19.178;2023-11-22T06:58:45;99400.89;;;-0.56;100.00
41102;BME280;26845;50.190;19.178;2023-11-22T07:01:12;99402.30;;;-0.56;100.00
41102;BME280;26845;50.190;19.178;2023-11-22T07:03:38;99404.53;;;-0.60;100.00
41102;BME280;26845;50.190;19.178;2023-11-22T07:06:04;99407.09;;;-0.58;100.00
41102;BME280;26845;50.190;19.178;2023-11-22T07:08:30;99410.94;;;-0.61;100.00
41102;BME280;26845;50.190;19.178;2023-11-22T07:10:56;99414.86;;;-0.65;100.00
41102;BME280;26845;50.190;19.178;2023-11-22T07:13:23;99408.77;;;-0.72;100.00
41102;BME280;26845;50.190;19.178;2023-11-22T07:15:50;99415.95;;;-0.76;100.00
41102;BME280;26845;50.190;19.178;2023-11-22T07:18:16;99424.56;;;-0.79;100.00
41102;BME280;26845;50.190;19.178;2023-11-22T07:20:42;99434.93;;;-0.78;100.00
41102;BME280;26845;50.190;19.178;2023-11-22T07:23:09;99439.33;;;-0.78;100.00
41102;BME280;26845;50.190;19.178;2023-11-22T07:25:38;99439.19;;;-0.80;100.00
41102;BME280;26845;50.190;19.178;2023-11-22T07:28:04;99450.64;;;-0.83;100.00
41102;BME280;26845;50.190;19.178;2023-11-22T07:30:30;99453.54;;;-0.87;100.00
41102;BME280;26845;50.190;19.178;2023-11-22T07:32:58;99450.39;;;-0.90;100.00
41102;BME280;26845;50.190;19.178;2023-11-22T07:35:25;99457.55;;;-0.89;100.00
41102;BME280;26845;50.190;19.178;2023-11-22T07:37:53;99459.58;;;-0.91;100.00
41102;BME280;26845;50.190;19.178;2023-11-22T07:40:19;99465.14;;;-0.96;100.00
41102;BME280;26845;50.190;19.178;2023-11-22T07:42:47;99468.23;;;-1.00;100.00
41102;BME280;26845;50.190;19.178;2023-11-22T07:45:13;99472.23;;;-1.00;100.00
41102;BME280;26845;50.190;19.178;2023-11-22T07:47:39;99465.28;;;-0.99;100.00
41102;BME280;26845;50.190;19.178;2023-11-22T07:50:09;99475.09;;;-0.96;100.00
41102;BME280;26845;50.190;19.178;2023-11-22T07:52:36;99475.66;;;-0.95;100.00
41102;BME280;26845;50.190;19.178;2023-11-22T07:55:04;99480.43;;;-0.94;100.00
41102;BME280;26845;50.190;19.178;2023-11-22T07:57:36;99481.61;;;-0.97;100.00
41102;BME280;26845;50.190;19.178;2023-11-22T08:00:02;99485.13;;;-0.96;100.00
41102;BME280;26845;50.190;19.178;2023-11-22T08:02:32;99494.09;;;-0.94;100.00
41102;BME280;26845;50.190;19.178;2023-11-22T08:04:58;99490.38;;;-0.96;100.00
41102;BME280;26845;50.190;19.178;2023-11-22T08:07:27;99485.96;;;-0.92;100.00
41102;BME280;26845;50.190;19.178;2023-11-22T08:09:53;99487.83;;;-0.90;100.00
41102;BME280;26845;50.190;19.178;2023-11-22T08:12:19;99482.89;;;-0.90;100.00
41102;BME280;26845;50.190;19.178;2023-11-22T08:14:46;99482.33;;;-0.93;100.00
41102;BME280;26845;50.190;19.178;2023-11-22T08:17:12;99492.70;;;-0.93;100.00
41102;BME280;26845;50.190;19.178;2023-11-22T08:19:39;99489.84;;;-0.89;100.00
41102;BME280;26845;50.190;19.178;2023-11-22T08:22:05;99497.72;;;-0.84;100.00
41102;BME280;26845;50.190;19.178;2023-11-22T08:24:31;99506.30;;;-0.81;100.00
41102;BME280;26845;50.190;19.178;2023-11-22T08:26:57;99502.45;;;-0.78;100.00
41102;BME280;26845;50.190;19.178;2023-11-22T08:29:24;99501.54;;;-0.79;100.00
41102;BME280;26845;50.190;19.178;2023-11-22T08:31:50;99506.64;;;-0.78;100.00
41102;BME280;26845;50.190;19.178;2023-11-22T08:34:16;99501.95;;;-0.74;100.00
41102;BME280;26845;50.190;19.178;2023-11-22T08:36:42;99508.25;;;-0.71;100.00
41102;BME280;26845;50.190;19.178;2023-11-22T08:39:08;99512.68;;;-0.64;100.00
41102;BME280;26845;50.190;19.178;2023-11-22T08:41:34;99519.92;;;-0.63;100.00
41102;BME280;26845;50.190;19.178;2023-11-22T08:44:00;99520.79;;;-0.67;100.00
41102;BME280;26845;50.190;19.178;2023-11-22T08:46:27;99523.50;;;-0.70;100.00
41102;BME280;26845;50.190;19.178;2023-11-22T08:48:52;99523.84;;;-0.74;100.00
41102;BME280;26845;50.190;19.178;2023-11-22T08:51:19;99532.21;;;-0.81;100.00
41102;BME280;26845;50.190;19.178;2023-11-22T08:53:45;99532.46;;;-0.82;100.00
41102;BME280;26845;50.190;19.178;2023-11-22T08:56:11;99524.05;;;-0.80;100.00
41102;BME280;26845;50.190;19.178;2023-11-22T08:58:37;99522.05;;;-0.81;100.00
41102;BME280;26845;50.190;19.178;2023-11-22T09:01:04;99526.11;;;-0.84;100.00
41102;BME280;26845;50.190;19.178;2023-11-22T09:03:31;99520.78;;;-0.85;100.00
41102;BME280;26845;50.190;19.178;2023-11-22T09:05:56;99523.16;;;-0.82;100.00
41102;BME280;26845;50.190;19.178;2023-11-22T09:08:22;99528.71;;;-0.81;100.00
41102;BME280;26845;50.190;19.178;2023-11-22T09:10:49;99537.84;;;-0.72;100.00
41102;BME280;26845;50.190;19.178;2023-11-22T09:13:16;99538.64;;;-0.68;100.00
41102;BME280;26845;50.190;19.178;2023-11-22T09:15:42;99533.35;;;-0.62;100.00
41102;BME280;26845;50.190;19.178;2023-11-22T09:18:10;99531.27;;;-0.62;100.00
41102;BME280;26845;50.190;19.178;2023-11-22T09:20:36;99533.15;;;-0.66;100.00
41102;BME280;26845;50.190;19.178;2023-11-22T09:23:02;99539.27;;;-0.69;100.00
41102;BME280;26845;50.190;19.178;2023-11-22T09:25:29;99550.03;;;-0.70;100.00
41102;BME280;26845;50.190;19.178;2023-11-22T09:27:56;99556.09;;;-0.55;100.00
41102;BME280;26845;50.190;19.178;2023-11-22T09:30:25;99553.46;;;-0.40;100.00
41102;BME280;26845;50.190;19.178;2023-11-22T09:33:08;99554.33;;;-0.49;100.00
41102;BME280;26845;50.190;19.178;2023-11-22T09:35:34;99551.95;;;-0.59;100.00
41102;BME280;26845;50.190;19.178;2023-11-22T09:38:00;99553.70;;;-0.66;100.00
41102;BME280;26845;50.190;19.178;2023-11-22T09:40:27;99541.26;;;-0.75;100.00
41102;BME280;26845;50.190;19.178;2023-11-22T09:42:54;99544.73;;;-0.77;100.00
41102;BME280;26845;50.190;19.178;2023-11-22T09:45:20;99553.58;;;-0.76;100.00
41102;BME280;26845;50.190;19.178;2023-11-22T09:47:47;99555.58;;;-0.74;100.00
41102;BME280;26845;50.190;19.178;2023-11-22T09:50:14;99562.75;;;-0.79;100.00
41102;BME280;26845;50.190;19.178;2023-11-22T09:52:43;99573.16;;;-0.86;100.00
41102;BME280;26845;50.190;19.178;2023-11-22T09:55:11;99582.21;;;-0.88;100.00
41102;BME280;26845;50.190;19.178;2023-11-22T09:57:38;99580.33;;;-0.87;100.00
41102;BME280;26845;50.190;19.178;2023-11-22T10:00:04;99577.26;;;-0.84;100.00
41102;BME280;26845;50.190;19.178;2023-11-22T10:02:31;99569.91;;;-0.80;100.00
41102;BME280;26845;50.190;19.178;2023-11-22T10:04:57;99583.34;;;-0.79;100.00
41102;BME280;26845;50.190;19.178;2023-11-22T10:07:23;99587.33;;;-0.78;100.00
41102;BME280;26845;50.190;19.178;2023-11-22T10:09:50;99589.18;;;-0.79;100.00
41102;BME280;26845;50.190;19.178;2023-11-22T10:12:19;99590.44;;;-0.80;100.00
41102;BME280;26845;50.190;19.178;2023-11-22T10:14:48;99592.79;;;-0.79;100.00
41102;BME280;26845;50.190;19.178;2023-11-22T10:17:14;99595.45;;;-0.76;100.00
41102;BME280;26845;50.190;19.178;2023-11-22T10:19:42;99598.95;;;-0.72;100.00
41102;BME280;26845;50.190;19.178;2023-11-22T10:22:08;99598.25;;;-0.70;100.00
41102;BME280;26845;50.190;19.178;2023-11-22T10:24:34;99593.34;;;-0.66;100.00
41102;BME280;26845;50.190;19.178;2023-11-22T10:27:03;99587.86;;;-0.63;100.00
41102;BME280;26845;50.190;19.178;2023-11-22T10:29:28;99580.67;;;-0.59;100.00
41102;BME280;26845;50.190;19.178;2023-11-22T10:31:55;99582.48;;;-0.54;100.00
41102;BME280;26845;50.190;19.178;2023-11-22T10:34:21;99569.82;;;-0.48;100.00
41102;BME280;26845;50.190;19.178;2023-11-22T10:36:47;99566.72;;;-0.44;100.00
41102;BME280;26845;50.190;19.178;2023-11-22T10:39:13;99561.80;;;-0.42;100.00
41102;BME280;26845;50.190;19.178;2023-11-22T10:41:41;99564.55;;;-0.42;100.00
41102;BME280;26845;50.190;19.178;2023-11-22T10:44:08;99564.45;;;-0.43;100.00
41102;BME280;26845;50.190;19.178;2023-11-22T10:46:34;99565.73;;;-0.41;100.00
41102;BME280;26845;50.190;19.178;2023-11-22T10:49:00;99560.39;;;-0.44;100.00
41102;BME280;26845;50.190;19.178;2023-11-22T10:51:35;99556.27;;;-0.39;100.00
41102;BME280;26845;50.190;19.178;2023-11-22T10:54:02;99556.58;;;-0.36;100.00
41102;BME280;26845;50.190;19.178;2023-11-22T10:56:32;99562.98;;;-0.35;100.00
41102;BME280;26845;50.190;19.178;2023-11-22T10:59:02;99574.23;;;-0.34;100.00
41102;BME280;26845;50.190;19.178;2023-11-22T11:01:31;99572.06;;;-0.30;100.00
41102;BME280;26845;50.190;19.178;2023-11-22T11:04:08;99575.75;;;-0.31;100.00
41102;BME280;26845;50.190;19.178;2023-11-22T11:06:35;99582.95;;;-0.28;100.00
41102;BME280;26845;50.190;19.178;2023-11-22T11:09:03;99581.18;;;-0.21;100.00
41102;BME280;26845;50.190;19.178;2023-11-22T11:11:35;99580.30;;;-0.16;100.00
41102;BME280;26845;50.190;19.178;2023-11-22T11:14:01;99578.91;;;-0.08;100.00
41102;BME280;26845;50.190;19.178;2023-11-22T11:16:27;99576.77;;;-0.06;100.00
41102;BME280;26845;50.190;19.178;2023-11-22T11:18:53;99584.30;;;-0.03;100.00
41102;BME280;26845;50.190;19.178;2023-11-22T11:21:20;99584.58;;;0.02;100.00
41102;BME280;26845;50.190;19.178;2023-11-22T11:23:46;99593.42;;;0.07;100.00
41102;BME280;26845;50.190;19.178;2023-11-22T11:26:16;99600.73;;;0.16;100.00
41102;BME280;26845;50.190;19.178;2023-11-22T11:28:44;99600.81;;;0.22;100.00
41102;BME280;26845;50.190;19.178;2023-11-22T11:31:10;99601.94;;;0.26;100.00
41102;BME280;26845;50.190;19.178;2023-11-22T11:33:52;99613.29;;;0.30;100.00
41102;BME280;26845;50.190;19.178;2023-11-22T11:36:28;99619.66;;;0.32;100.00
41102;BME280;26845;50.190;19.178;2023-11-22T11:38:55;99618.86;;;0.23;100.00
41102;BME280;26845;50.190;19.178;2023-11-22T11:41:28;99621.96;;;0.16;100.00
41102;BME280;26845;50.190;19.178;2023-11-22T11:43:54;99613.46;;;0.19;100.00
41102;BME280;26845;50.190;19.178;2023-11-22T11:46:20;99624.46;;;0.21;100.00
41102;BME280;26845;50.190;19.178;2023-11-22T11:48:48;99627.06;;;0.21;100.00
41102;BME280;26845;50.190;19.178;2023-11-22T11:51:14;99624.98;;;0.23;100.00
41102;BME280;26845;50.190;19.178;2023-11-22T11:53:40;99630.02;;;0.26;100.00
41102;BME280;26845;50.190;19.178;2023-11-22T11:56:06;99623.10;;;0.26;100.00
41102;BME280;26845;50.190;19.178;2023-11-22T11:58:33;99619.39;;;0.26;100.00
41102;BME280;26845;50.190;19.178;2023-11-22T12:00:59;99622.98;;;0.23;100.00
41102;BME280;26845;50.190;19.178;2023-11-22T12:03:25;99620.59;;;0.22;100.00
41102;BME280;26845;50.190;19.178;2023-11-22T12:05:51;99617.11;;;0.27;100.00
41102;BME280;26845;50.190;19.178;2023-11-22T12:08:17;99618.63;;;0.24;100.00
41102;BME280;26845;50.190;19.178;2023-11-22T12:10:44;99614.38;;;0.21;100.00
41102;BME280;26845;50.190;19.178;2023-11-22T12:13:16;99606.48;;;0.26;100.00
41102;BME280;26845;50.190;19.178;2023-11-22T12:15:41;99607.83;;;0.33;100.00
41102;BME280;26845;50.190;19.178;2023-11-22T12:18:07;99611.16;;;0.41;100.00
41102;BME280;26845;50.190;19.178;2023-11-22T12:20:34;99614.63;;;0.47;100.00
41102;BME280;26845;50.190;19.178;2023-11-22T12:23:01;99623.61;;;0.48;100.00
41102;BME280;26845;50.190;19.178;2023-11-22T12:25:27;99623.39;;;0.42;100.00
41102;BME280;26845;50.190;19.178;2023-11-22T12:27:56;99620.48;;;0.42;100.00
41102;BME280;26845;50.190;19.178;2023-11-22T12:30:40;99610.80;;;0.43;100.00
41102;BME280;26845;50.190;19.178;2023-11-22T12:33:08;99610.55;;;0.44;100.00
41102;BME280;26845;50.190;19.178;2023-11-22T12:35:34;99613.13;;;0.46;100.00
41102;BME280;26845;50.190;19.178;2023-11-22T12:38:01;99618.70;;;0.53;100.00
41102;BME280;26845;50.190;19.178;2023-11-22T12:40:27;99631.41;;;0.57;100.00
41102;BME280;26845;50.190;19.178;2023-11-22T12:42:53;99627.13;;;0.52;100.00